createdAt,value
2019-01-23T00:00:49.512Z,30.20
2019-01-23T00:01:49.501Z,39.50
2019-01-23T00:02:49.503Z,38.40
2019-01-23T00:03:49.485Z,36.10
2019-01-23T00:04:49.470Z,36.60
2019-01-23T00:05:49.459Z,37.10
2019-01-23T00:06:49.448Z,35.90
2019-01-23T00:07:49.452Z,34.10
2019-01-23T00:08:49.430Z,36.10
2019-01-23T00:09:49.419Z,34.00
2019-01-23T00:10:49.416Z,35.30
2019-01-23T00:11:49.396Z,33.50
2019-01-23T00:12:49.398Z,30.80
2019-01-23T00:13:49.377Z,32.70
2019-01-23T00:14:49.370Z,31.90
2019-01-23T00:15:49.355Z,33.60
2019-01-23T00:16:49.348Z,35.10
2019-01-23T00:17:49.346Z,33.80
2019-01-23T00:18:49.324Z,30.20
2019-01-23T00:19:49.314Z,32.70
2019-01-23T00:20:49.303Z,38.60
2019-01-23T00:21:49.307Z,33.20
2019-01-23T00:22:49.295Z,34.90
2019-01-23T00:23:49.272Z,40.60
2019-01-23T00:24:49.263Z,33.80
2019-01-23T00:25:49.251Z,36.40
2019-01-23T00:26:49.241Z,32.10
2019-01-23T00:27:49.246Z,33.90
2019-01-23T00:28:49.219Z,33.10
2019-01-23T00:29:49.212Z,33.40
2019-01-23T00:30:49.198Z,31.20
2019-01-23T00:31:49.190Z,39.30
2019-01-23T00:32:49.196Z,32.90
2019-01-23T00:33:49.176Z,34.60
2019-01-23T00:34:49.157Z,32.80
2019-01-23T00:35:49.148Z,37.80
2019-01-23T00:36:49.137Z,37.10
2019-01-23T00:37:49.147Z,36.20
2019-01-23T00:38:49.121Z,36.80
2019-01-23T00:39:49.108Z,40.60
2019-01-23T00:40:49.097Z,32.00
2019-01-23T00:41:49.093Z,30.80
2019-01-23T00:42:49.091Z,35.10
2019-01-23T00:43:49.068Z,29.10
2019-01-23T00:44:49.053Z,37.60
2019-01-23T00:45:49.047Z,32.40
2019-01-23T00:46:49.065Z,32.80
2019-01-23T00:47:49.034Z,34.00
2019-01-23T00:48:49.011Z,30.40
2019-01-23T00:49:49.001Z,38.00
2019-01-23T00:50:48.993Z,30.50
2019-01-23T00:51:48.987Z,33.80
2019-01-23T00:52:48.980Z,36.50
2019-01-23T00:53:48.961Z,32.00
2019-01-23T00:54:48.948Z,33.60
2019-01-23T00:55:48.937Z,33.20
2019-01-23T00:56:48.932Z,27.30
2019-01-23T00:57:48.930Z,31.10
2019-01-23T00:58:49.283Z,29.50
2019-01-23T00:59:48.899Z,30.90
2019-01-23T01:00:48.883Z,33.60
2019-01-23T01:01:48.874Z,32.10
2019-01-23T01:02:48.876Z,33.60
2019-01-23T01:03:48.854Z,32.80
2019-01-23T01:04:48.842Z,34.30
2019-01-23T01:05:48.834Z,30.90
2019-01-23T01:06:48.823Z,29.00
2019-01-23T01:07:48.838Z,34.60
2019-01-23T01:08:48.802Z,36.00
2019-01-23T01:09:48.791Z,39.30
2019-01-23T01:10:48.781Z,32.70
2019-01-23T01:11:48.770Z,27.80
2019-01-23T01:12:48.773Z,34.50
2019-01-23T01:13:48.750Z,33.90
2019-01-23T01:14:48.741Z,28.50
2019-01-23T01:15:48.729Z,32.90
2019-01-23T01:16:48.718Z,33.30
2019-01-23T01:17:48.719Z,32.50
2019-01-23T01:18:48.699Z,29.40
2019-01-23T01:19:48.688Z,35.20
2019-01-23T01:20:48.681Z,31.80
2019-01-23T01:21:48.667Z,35.60
2019-01-23T01:22:48.666Z,29.60
2019-01-23T01:23:48.645Z,35.80
2019-01-23T01:24:48.636Z,24.90
2019-01-23T01:25:48.632Z,34.50
2019-01-23T01:26:48.618Z,31.20
2019-01-23T01:27:48.615Z,32.40
2019-01-23T01:28:48.595Z,34.20
2019-01-23T01:29:48.586Z,34.40
2019-01-23T01:30:48.574Z,31.90
2019-01-23T01:31:48.573Z,28.70
2019-01-23T01:32:48.578Z,33.10
2019-01-23T01:33:48.544Z,29.90
2019-01-23T01:34:48.534Z,25.30
2019-01-23T01:35:48.525Z,32.70
2019-01-23T01:36:48.515Z,34.90
2019-01-23T01:37:48.515Z,32.60
2019-01-23T01:38:58.034Z,31.30
2019-01-23T01:39:57.990Z,32.70
2019-01-23T01:40:48.497Z,28.80
2019-01-23T01:41:56.562Z,26.80
2019-01-23T01:42:48.512Z,35.10
2019-01-23T01:43:48.453Z,31.40
2019-01-23T01:44:48.456Z,28.20
2019-01-23T01:45:48.434Z,36.70
2019-01-23T01:46:48.445Z,30.90
2019-01-23T01:47:48.401Z,29.20
2019-01-23T01:48:48.405Z,36.90
2019-01-23T01:49:48.403Z,36.70
2019-01-23T01:50:48.409Z,35.30
2019-01-23T01:51:48.388Z,34.90
2019-01-23T01:52:48.370Z,31.50
2019-01-23T01:53:48.406Z,36.50
2019-01-23T01:54:48.400Z,26.80
2019-01-23T01:55:48.330Z,32.90
2019-01-23T01:56:48.340Z,34.50
2019-01-23T01:57:48.351Z,27.60
2019-01-23T01:58:48.328Z,35.60
2019-01-23T01:59:48.279Z,37.70
2019-01-23T02:00:48.266Z,29.80
2019-01-23T02:01:48.271Z,29.70
2019-01-23T02:02:48.277Z,35.70
2019-01-23T02:03:48.255Z,28.90
2019-01-23T02:04:48.254Z,37.20
2019-01-23T02:05:48.227Z,34.00
2019-01-23T02:06:48.220Z,28.30
2019-01-23T02:07:48.204Z,30.70
2019-01-23T02:08:48.214Z,32.90
2019-01-23T02:09:48.186Z,28.80
2019-01-23T02:10:48.175Z,34.20
2019-01-23T02:11:48.160Z,30.80
2019-01-23T02:12:48.150Z,35.60
2019-01-23T02:13:48.162Z,26.20
2019-01-23T02:14:48.158Z,35.80
2019-01-23T02:15:48.153Z,31.40
2019-01-23T02:16:48.123Z,30.10
2019-01-23T02:17:48.099Z,32.60
2019-01-23T02:18:48.110Z,32.70
2019-01-23T02:19:48.110Z,33.10
2019-01-23T02:20:48.075Z,32.20
2019-01-23T02:21:48.062Z,32.00
2019-01-23T02:22:48.099Z,33.40
2019-01-23T02:23:48.066Z,40.10
2019-01-23T02:24:48.029Z,32.00
2019-01-23T02:25:48.019Z,38.70
2019-01-23T02:26:48.016Z,29.90
2019-01-23T02:27:48.002Z,33.80
2019-01-23T02:28:48.009Z,29.30
2019-01-23T02:29:47.976Z,35.30
2019-01-23T02:30:47.966Z,36.70
2019-01-23T02:31:47.976Z,35.70
2019-01-23T02:32:47.957Z,31.60
2019-01-23T02:33:47.954Z,37.00
2019-01-23T02:34:47.928Z,31.30
2019-01-23T02:35:47.917Z,32.60
2019-01-23T02:36:47.909Z,40.30
2019-01-23T02:37:47.892Z,33.70
2019-01-23T02:38:47.901Z,30.80
2019-01-23T02:39:47.877Z,34.40
2019-01-23T02:40:47.860Z,35.70
2019-01-23T02:41:47.898Z,37.10
2019-01-23T02:42:47.847Z,34.20
2019-01-23T02:43:47.861Z,35.00
2019-01-23T02:44:47.831Z,28.30
2019-01-23T02:45:47.820Z,28.70
2019-01-23T02:46:47.817Z,44.80
2019-01-23T02:47:47.787Z,36.70
2019-01-23T02:48:47.842Z,32.20
2019-01-23T02:49:47.791Z,37.90
2019-01-23T02:50:47.795Z,46.00
2019-01-23T02:51:47.756Z,36.20
2019-01-23T02:52:47.735Z,38.00
2019-01-23T02:53:47.769Z,33.30
2019-01-23T02:54:47.719Z,29.60
2019-01-23T02:55:47.718Z,31.80
2019-01-23T02:56:47.695Z,37.00
2019-01-23T02:57:47.688Z,30.10
2019-01-23T02:58:47.695Z,35.30
2019-01-23T02:59:47.673Z,33.80
2019-01-23T03:00:47.732Z,31.00
2019-01-23T03:01:47.655Z,30.80
2019-01-23T03:02:47.640Z,36.50
2019-01-23T03:03:47.651Z,33.30
2019-01-23T03:04:47.625Z,36.80
2019-01-23T03:05:47.643Z,42.40
2019-01-23T03:06:47.592Z,34.80
2019-01-23T03:07:47.623Z,39.80
2019-01-23T03:08:47.673Z,35.70
2019-01-23T03:09:47.566Z,33.90
2019-01-23T03:10:47.552Z,35.90
2019-01-23T03:11:47.554Z,29.70
2019-01-23T03:12:47.546Z,36.70
2019-01-23T03:13:47.535Z,29.60
2019-01-23T03:14:47.528Z,32.20
2019-01-23T03:15:47.510Z,39.50
2019-01-23T03:16:47.514Z,38.70
2019-01-23T03:17:47.504Z,33.70
2019-01-23T03:18:47.487Z,37.60
2019-01-23T03:19:47.454Z,37.90
2019-01-23T03:20:47.453Z,35.80
2019-01-23T03:21:47.445Z,39.50
2019-01-23T03:22:47.425Z,34.50
2019-01-23T03:23:47.443Z,35.90
2019-01-23T03:24:47.450Z,34.90
2019-01-23T03:25:47.469Z,35.70
2019-01-23T03:26:47.382Z,34.90
2019-01-23T03:27:47.378Z,36.00
2019-01-23T03:28:47.383Z,43.90
2019-01-23T03:29:47.396Z,36.80
2019-01-23T03:30:47.379Z,39.80
2019-01-23T03:31:47.412Z,35.90
2019-01-23T03:32:47.337Z,34.60
2019-01-23T03:33:47.331Z,35.60
2019-01-23T03:34:47.319Z,34.50
2019-01-23T03:35:47.294Z,39.40
2019-01-23T03:36:47.291Z,36.20
2019-01-23T03:37:47.270Z,41.80
2019-01-23T03:38:47.278Z,40.30
2019-01-23T03:39:47.291Z,41.10
2019-01-23T03:40:47.258Z,37.50
2019-01-23T03:41:47.263Z,29.40
2019-01-23T03:42:47.231Z,36.70
2019-01-23T03:43:47.268Z,41.00
2019-01-23T03:44:47.199Z,33.60
2019-01-23T03:45:47.197Z,37.30
2019-01-23T03:46:47.214Z,42.20
2019-01-23T03:47:47.206Z,45.20
2019-01-23T03:48:47.171Z,36.90
2019-01-23T03:49:47.157Z,35.20
2019-01-23T03:50:47.187Z,37.80
2019-01-23T03:51:47.235Z,34.80
2019-01-23T03:52:47.121Z,43.20
2019-01-23T03:53:47.160Z,36.10
2019-01-23T03:54:47.115Z,45.60
2019-01-23T03:55:47.083Z,42.30
2019-01-23T03:56:47.080Z,37.60
2019-01-23T03:57:47.081Z,39.90
2019-01-23T03:58:47.076Z,31.50
2019-01-23T03:59:47.056Z,36.50
2019-01-23T04:00:47.035Z,30.00
2019-01-23T04:01:47.025Z,33.30
2019-01-23T04:02:47.024Z,37.30
2019-01-23T04:03:47.027Z,41.00
2019-01-23T04:04:47.013Z,32.60
2019-01-23T04:05:46.992Z,36.70
2019-01-23T04:06:47.045Z,49.10
2019-01-23T04:07:46.960Z,34.50
2019-01-23T04:08:46.968Z,39.60
2019-01-23T04:09:46.952Z,44.80
2019-01-23T04:10:46.958Z,38.80
2019-01-23T04:11:46.919Z,35.60
2019-01-23T04:12:46.910Z,38.80
2019-01-23T04:13:46.915Z,39.20
2019-01-23T04:14:46.888Z,33.10
2019-01-23T04:15:46.886Z,41.50
2019-01-23T04:16:46.912Z,36.20
2019-01-23T04:17:46.862Z,38.50
2019-01-23T04:18:46.860Z,39.80
2019-01-23T04:19:46.836Z,41.10
2019-01-23T04:20:46.830Z,43.00
2019-01-23T04:21:46.834Z,43.20
2019-01-23T04:22:46.860Z,41.30
2019-01-23T04:23:46.826Z,42.90
2019-01-23T04:24:46.786Z,40.50
2019-01-23T04:25:46.775Z,32.90
2019-01-23T04:26:46.767Z,41.80
2019-01-23T04:27:46.771Z,46.60
2019-01-23T04:28:46.752Z,38.30
2019-01-23T04:29:46.746Z,43.80
2019-01-23T04:30:46.718Z,43.70
2019-01-23T04:31:46.717Z,36.80
2019-01-23T04:32:46.703Z,42.70
2019-01-23T04:33:46.701Z,41.90
2019-01-23T04:34:46.754Z,41.90
2019-01-23T04:35:46.674Z,37.70
2019-01-23T04:36:46.678Z,41.80
2019-01-23T04:37:46.646Z,36.80
2019-01-23T04:38:46.645Z,46.80
2019-01-23T04:39:46.651Z,42.40
2019-01-23T04:40:46.671Z,37.30
2019-01-23T04:41:46.623Z,37.90
2019-01-23T04:42:46.607Z,42.20
2019-01-23T04:43:46.592Z,35.50
2019-01-23T04:44:46.585Z,40.60
2019-01-23T04:45:46.578Z,40.30
2019-01-23T04:46:46.555Z,40.40
2019-01-23T04:47:46.557Z,35.20
2019-01-23T04:48:46.534Z,42.50
2019-01-23T04:49:46.554Z,43.90
2019-01-23T04:50:46.522Z,41.90
2019-01-23T04:51:46.513Z,44.10
2019-01-23T04:52:46.491Z,43.50
2019-01-23T04:53:46.513Z,39.90
2019-01-23T04:54:46.482Z,44.00
2019-01-23T04:55:46.519Z,32.00
2019-01-23T04:56:46.459Z,41.20
2019-01-23T04:57:46.457Z,38.00
2019-01-23T04:58:46.431Z,44.30
2019-01-23T04:59:46.883Z,38.60
2019-01-23T05:00:46.420Z,35.10
2019-01-23T05:01:46.401Z,39.60
2019-01-23T05:02:46.405Z,40.40
2019-01-23T05:03:46.381Z,36.80
2019-01-23T05:04:46.400Z,39.20
2019-01-23T05:05:46.374Z,44.30
2019-01-23T05:06:46.345Z,36.40
2019-01-23T05:07:46.340Z,37.00
2019-01-23T05:08:46.338Z,45.90
2019-01-23T05:09:46.340Z,36.10
2019-01-23T05:10:46.308Z,42.40
2019-01-23T05:11:46.295Z,38.90
2019-01-23T05:12:46.289Z,41.50
2019-01-23T05:13:46.285Z,33.70
2019-01-23T05:14:46.287Z,42.30
2019-01-23T05:15:46.299Z,42.00
2019-01-23T05:16:46.245Z,39.30
2019-01-23T05:17:46.236Z,48.30
2019-01-23T05:18:46.238Z,37.60
2019-01-23T05:19:46.228Z,39.70
2019-01-23T05:20:46.210Z,44.10
2019-01-23T05:21:46.194Z,38.80
2019-01-23T05:22:46.182Z,40.60
2019-01-23T05:23:46.173Z,44.70
2019-01-23T05:24:46.175Z,51.40
2019-01-23T05:25:46.151Z,36.10
2019-01-23T05:26:46.161Z,54.80
2019-01-23T05:27:46.132Z,41.70
2019-01-23T05:28:46.123Z,43.50
2019-01-23T05:29:46.117Z,47.30
2019-01-23T05:30:46.104Z,39.10
2019-01-23T05:31:46.088Z,40.50
2019-01-23T05:32:46.079Z,36.90
2019-01-23T05:33:46.075Z,42.70
2019-01-23T05:34:46.080Z,43.60
2019-01-23T05:35:46.101Z,36.70
2019-01-23T05:36:46.077Z,44.60
2019-01-23T05:37:46.095Z,42.70
2019-01-23T05:38:46.018Z,44.90
2019-01-23T05:39:46.120Z,41.30
2019-01-23T05:40:45.989Z,38.20
2019-01-23T05:41:45.990Z,44.30
2019-01-23T05:42:45.994Z,36.70
2019-01-23T05:43:45.974Z,37.40
2019-01-23T05:44:46.057Z,39.80
2019-01-23T05:45:45.956Z,39.90
2019-01-23T05:46:46.008Z,37.60
2019-01-23T05:47:45.922Z,39.90
2019-01-23T05:48:45.919Z,42.40
2019-01-23T05:49:45.937Z,41.00
2019-01-23T05:50:45.906Z,41.10
2019-01-23T05:51:45.918Z,41.30
2019-01-23T05:52:45.869Z,52.00
2019-01-23T05:53:45.856Z,43.10
2019-01-23T05:54:45.858Z,39.40
2019-01-23T05:55:45.867Z,42.00
2019-01-23T05:56:45.827Z,43.70
2019-01-23T05:57:46.474Z,47.20
2019-01-23T05:58:45.803Z,36.50
2019-01-23T05:59:45.881Z,45.40
2019-01-23T06:00:45.802Z,44.80
2019-01-23T06:01:45.788Z,38.20
2019-01-23T06:02:45.785Z,39.60
2019-01-23T06:03:45.758Z,37.00
2019-01-23T06:04:45.741Z,36.80
2019-01-23T06:05:45.761Z,36.20
2019-01-23T06:06:45.727Z,47.40
2019-01-23T06:07:47.695Z,37.00
2019-01-23T06:08:45.701Z,41.30
2019-01-23T06:09:45.698Z,42.70
2019-01-23T06:10:45.706Z,41.80
2019-01-23T06:11:45.676Z,37.70
2019-01-23T06:12:45.705Z,34.30
2019-01-23T06:13:45.651Z,45.50
2019-01-23T06:14:45.641Z,39.20
2019-01-23T06:15:45.647Z,48.90
2019-01-23T06:16:45.621Z,43.10
2019-01-23T06:17:45.625Z,43.70
2019-01-23T06:18:45.602Z,39.50
2019-01-23T06:19:45.594Z,42.20
2019-01-23T06:20:45.591Z,42.80
2019-01-23T06:21:45.576Z,42.30
2019-01-23T06:22:45.567Z,39.10
2019-01-23T06:23:45.615Z,36.40
2019-01-23T06:24:45.577Z,38.30
2019-01-23T06:25:45.540Z,46.10
2019-01-23T06:26:45.518Z,44.10
2019-01-23T06:27:45.536Z,34.10
2019-01-23T06:28:45.501Z,36.30
2019-01-23T06:29:45.489Z,42.30
2019-01-23T06:30:45.499Z,40.90
2019-01-23T06:31:45.463Z,45.90
2019-01-23T06:32:45.459Z,44.30
2019-01-23T06:33:45.515Z,40.30
2019-01-23T06:34:45.433Z,57.00
2019-01-23T06:35:45.480Z,44.10
2019-01-23T06:36:45.412Z,47.00
2019-01-23T06:37:45.402Z,44.20
2019-01-23T06:38:45.399Z,41.90
2019-01-23T06:39:45.431Z,45.00
2019-01-23T06:40:45.386Z,46.20
2019-01-23T06:41:45.373Z,39.10
2019-01-23T06:42:45.349Z,39.90
2019-01-23T06:43:45.341Z,42.80
2019-01-23T06:44:45.340Z,42.70
2019-01-23T06:45:45.347Z,43.20
2019-01-23T06:46:45.310Z,42.10
2019-01-23T06:47:45.293Z,40.40
2019-01-23T06:48:45.289Z,49.10
2019-01-23T06:49:45.294Z,44.60
2019-01-23T06:50:45.285Z,44.90
2019-01-23T06:51:45.295Z,38.90
2019-01-23T06:52:45.246Z,44.20
2019-01-23T06:53:45.255Z,41.20
2019-01-23T06:54:45.226Z,41.40
2019-01-23T06:55:45.228Z,35.00
2019-01-23T06:56:45.207Z,51.90
2019-01-23T06:57:45.211Z,40.30
2019-01-23T06:58:45.186Z,47.30
2019-01-23T06:59:45.170Z,42.40
2019-01-23T07:00:45.175Z,36.00
2019-01-23T07:01:45.164Z,42.40
2019-01-23T07:02:45.155Z,52.60
2019-01-23T07:03:45.142Z,43.80
2019-01-23T07:04:45.130Z,42.30
2019-01-23T07:05:45.129Z,45.90
2019-01-23T07:06:45.104Z,51.80
2019-01-23T07:07:45.092Z,48.00
2019-01-23T07:08:45.085Z,44.00
2019-01-23T07:09:45.096Z,42.20
2019-01-23T07:10:45.097Z,44.30
2019-01-23T07:11:45.061Z,46.50
2019-01-23T07:12:45.042Z,51.70
2019-01-23T07:13:45.030Z,46.60
2019-01-23T07:14:45.083Z,55.90
2019-01-23T07:15:45.025Z,52.60
2019-01-23T07:16:44.997Z,48.50
2019-01-23T07:17:44.985Z,45.60
2019-01-23T07:18:45.941Z,48.90
2019-01-23T07:19:44.974Z,47.60
2019-01-23T07:20:44.976Z,49.30
2019-01-23T07:21:44.966Z,46.70
2019-01-23T07:22:44.995Z,47.20
2019-01-23T07:23:44.931Z,39.30
2019-01-23T07:24:44.915Z,50.90
2019-01-23T07:25:44.928Z,51.50
2019-01-23T07:26:44.910Z,47.90
2019-01-23T07:27:44.903Z,41.50
2019-01-23T07:28:49.121Z,52.60
2019-01-23T07:29:44.866Z,44.90
2019-01-23T07:30:44.876Z,57.00
2019-01-23T07:31:44.845Z,46.00
2019-01-23T07:32:44.845Z,52.70
2019-01-23T07:33:44.833Z,56.70
2019-01-23T07:34:44.811Z,53.70
2019-01-23T07:35:44.857Z,49.30
2019-01-23T07:36:44.791Z,51.60
2019-01-23T07:37:44.798Z,50.10
2019-01-23T07:38:44.779Z,68.70
2019-01-23T07:39:44.785Z,65.10
2019-01-23T07:40:44.807Z,57.50
2019-01-23T07:41:44.736Z,49.20
2019-01-23T07:42:54.016Z,48.80
2019-01-23T07:43:44.710Z,52.70
2019-01-23T07:44:44.699Z,48.80
2019-01-23T07:45:44.736Z,58.50
2019-01-23T07:46:44.682Z,58.90
2019-01-23T07:47:44.673Z,52.90
2019-01-23T07:48:44.660Z,43.60
2019-01-23T07:49:44.647Z,52.30
2019-01-23T07:50:44.641Z,58.00
2019-01-23T07:51:44.649Z,42.90
2019-01-23T07:52:44.618Z,61.00
2019-01-23T07:53:44.608Z,49.90
2019-01-23T07:54:44.606Z,58.40
2019-01-23T07:55:44.587Z,63.20
2019-01-23T07:56:44.586Z,61.40
2019-01-23T07:57:44.567Z,54.40
2019-01-23T07:58:44.557Z,66.20
2019-01-23T07:59:44.543Z,58.80
2019-01-23T08:00:44.535Z,50.10
2019-01-23T08:01:44.536Z,62.30
2019-01-23T08:02:44.530Z,62.20
2019-01-23T08:03:44.503Z,52.10
2019-01-23T08:04:44.492Z,56.50
2019-01-23T08:05:44.482Z,58.10
2019-01-23T08:06:44.486Z,63.10
2019-01-23T08:07:44.464Z,59.70
2019-01-23T08:08:44.453Z,61.40
2019-01-23T08:09:44.440Z,67.00
2019-01-23T08:10:44.430Z,61.00
2019-01-23T08:11:44.429Z,56.10
2019-01-23T08:12:44.408Z,59.30
2019-01-23T08:13:44.424Z,66.70
2019-01-23T08:14:44.396Z,60.10
2019-01-23T08:15:44.379Z,66.80
2019-01-23T08:16:44.380Z,82.80
2019-01-23T08:17:44.366Z,83.20
2019-01-23T08:18:44.350Z,85.30
2019-01-23T08:19:44.339Z,71.20
2019-01-23T08:20:44.327Z,59.80
2019-01-23T08:21:44.333Z,58.80
2019-01-23T08:22:44.306Z,61.00
2019-01-23T08:23:44.297Z,58.40
2019-01-23T08:24:44.286Z,62.30
2019-01-23T08:25:44.279Z,72.30
2019-01-23T08:26:44.297Z,62.90
2019-01-23T08:27:44.256Z,61.10
2019-01-23T08:28:44.245Z,60.90
2019-01-23T08:29:44.236Z,71.30
2019-01-23T08:30:44.224Z,72.30
2019-01-23T08:31:44.225Z,69.40
2019-01-23T08:32:44.202Z,73.20
2019-01-23T08:33:44.192Z,66.50
2019-01-23T08:34:44.182Z,70.70
2019-01-23T08:35:44.171Z,70.20
2019-01-23T08:36:44.176Z,74.90
2019-01-23T08:37:44.150Z,68.10
2019-01-23T08:38:44.138Z,68.00
2019-01-23T08:39:44.131Z,73.10
2019-01-23T08:40:44.119Z,65.30
2019-01-23T08:41:44.119Z,71.00
2019-01-23T08:42:44.102Z,80.80
2019-01-23T08:43:44.087Z,76.30
2019-01-23T08:44:44.077Z,76.00
2019-01-23T08:45:44.072Z,85.30
2019-01-23T08:46:44.069Z,73.50
2019-01-23T08:47:44.047Z,71.10
2019-01-23T08:48:44.035Z,69.60
2019-01-23T08:49:45.590Z,75.70
2019-01-23T08:50:44.020Z,83.50
2019-01-23T08:51:44.016Z,86.20
2019-01-23T08:52:43.991Z,81.30
2019-01-23T08:53:43.980Z,75.70
2019-01-23T08:54:43.971Z,75.50
2019-01-23T08:55:43.963Z,78.30
2019-01-23T08:56:43.962Z,70.40
2019-01-23T08:57:43.946Z,77.20
2019-01-23T08:58:43.932Z,72.00
2019-01-23T08:59:43.917Z,85.00
2019-01-23T09:00:45.921Z,83.60
2019-01-23T09:01:43.909Z,77.30
2019-01-23T09:02:43.888Z,71.40
2019-01-23T09:03:43.883Z,73.50
2019-01-23T09:04:43.867Z,81.90
2019-01-23T09:05:43.858Z,72.30
2019-01-23T09:06:43.859Z,80.90
2019-01-23T09:07:43.835Z,80.00
2019-01-23T09:08:43.826Z,76.00
2019-01-23T09:09:43.816Z,82.90
2019-01-23T09:10:53.056Z,83.10
2019-01-23T09:11:43.808Z,81.70
2019-01-23T09:12:53.083Z,82.70
2019-01-23T09:13:43.771Z,91.50
2019-01-23T09:14:43.818Z,76.60
2019-01-23T09:15:43.751Z,78.00
2019-01-23T09:16:43.762Z,89.00
2019-01-23T09:17:43.730Z,87.60
2019-01-23T09:18:43.721Z,85.70
2019-01-23T09:19:53.096Z,93.00
2019-01-23T09:20:43.697Z,77.70
2019-01-23T09:21:43.703Z,97.50
2019-01-23T09:22:43.677Z,96.10
2019-01-23T09:23:43.667Z,91.60
2019-01-23T09:24:43.661Z,79.60
2019-01-23T09:25:49.524Z,89.50
2019-01-23T09:26:44.647Z,88.20
2019-01-23T09:27:43.626Z,87.20
2019-01-23T09:28:43.615Z,88.50
2019-01-23T09:29:43.607Z,91.30
2019-01-23T09:30:43.609Z,90.30
2019-01-23T09:31:43.597Z,90.30
2019-01-23T09:32:43.573Z,85.60
2019-01-23T09:33:43.562Z,78.60
2019-01-23T09:34:43.556Z,87.10
2019-01-23T09:35:43.550Z,97.60
2019-01-23T09:36:43.544Z,87.50
2019-01-23T09:37:43.521Z,94.30
2019-01-23T09:38:43.513Z,96.00
2019-01-23T09:39:43.503Z,84.50
2019-01-23T09:40:43.490Z,84.30
2019-01-23T09:41:43.496Z,82.80
2019-01-23T09:42:43.468Z,88.90
2019-01-23T09:43:43.458Z,84.10
2019-01-23T09:44:43.448Z,81.50
2019-01-23T09:45:43.440Z,88.30
2019-01-23T09:46:43.438Z,85.90
2019-01-23T09:47:43.417Z,88.00
2019-01-23T09:48:43.409Z,87.70
2019-01-23T09:49:43.396Z,91.80
2019-01-23T09:50:43.385Z,94.70
2019-01-23T09:51:43.411Z,101.00
2019-01-23T09:52:43.365Z,86.90
2019-01-23T09:53:43.358Z,86.90
2019-01-23T09:54:43.343Z,84.00
2019-01-23T09:55:43.331Z,89.70
2019-01-23T09:56:43.325Z,76.50
2019-01-23T09:57:43.324Z,82.40
2019-01-23T09:58:43.303Z,97.10
2019-01-23T09:59:43.305Z,111.90
2019-01-23T10:00:43.280Z,90.10
2019-01-23T10:01:43.268Z,91.30
2019-01-23T10:02:43.270Z,81.20
2019-01-23T10:03:43.247Z,81.90
2019-01-23T10:04:43.246Z,88.60
2019-01-23T10:05:43.239Z,84.80
2019-01-23T10:06:43.218Z,94.00
2019-01-23T10:07:43.237Z,101.30
2019-01-23T10:08:43.198Z,86.10
2019-01-23T10:09:43.187Z,83.90
2019-01-23T10:10:43.176Z,100.00
2019-01-23T10:11:43.164Z,89.30
2019-01-23T10:12:43.163Z,88.00
2019-01-23T10:13:43.144Z,85.40
2019-01-23T10:14:43.140Z,97.90
2019-01-23T10:15:43.124Z,97.10
2019-01-23T10:16:43.117Z,94.10
2019-01-23T10:17:43.133Z,92.70
2019-01-23T10:18:43.091Z,92.10
2019-01-23T10:19:43.081Z,95.80
2019-01-23T10:20:43.072Z,97.70
2019-01-23T10:21:43.060Z,91.30
2019-01-23T10:22:43.062Z,96.60
2019-01-23T10:23:43.049Z,96.40
2019-01-23T10:24:43.026Z,101.20
2019-01-23T10:25:43.041Z,99.90
2019-01-23T10:26:43.005Z,96.00
2019-01-23T10:27:43.001Z,104.00
2019-01-23T10:28:42.995Z,106.00
2019-01-23T10:29:42.972Z,95.20
2019-01-23T10:30:42.961Z,94.10
2019-01-23T10:31:42.959Z,103.30
2019-01-23T10:32:42.940Z,99.50
2019-01-23T10:33:42.943Z,100.10
2019-01-23T10:34:42.919Z,89.80
2019-01-23T10:35:42.911Z,96.60
2019-01-23T10:36:42.899Z,102.70
2019-01-23T10:37:42.888Z,91.70
2019-01-23T10:38:42.888Z,97.50
2019-01-23T10:39:42.882Z,101.60
2019-01-23T10:40:42.861Z,95.60
2019-01-23T10:41:42.847Z,95.10
2019-01-23T10:42:42.865Z,105.50
2019-01-23T10:43:42.835Z,98.50
2019-01-23T10:44:42.815Z,102.70
2019-01-23T10:45:42.805Z,98.30
2019-01-23T10:46:42.794Z,95.50
2019-01-23T10:47:42.783Z,111.90
2019-01-23T10:48:42.802Z,101.80
2019-01-23T10:49:42.761Z,101.00
2019-01-23T10:50:42.756Z,89.70
2019-01-23T10:51:42.740Z,96.80
2019-01-23T10:52:42.731Z,103.20
2019-01-23T10:53:42.728Z,95.70
2019-01-23T10:54:42.707Z,95.10
2019-01-23T10:55:42.698Z,100.60
2019-01-23T10:56:42.686Z,110.50
2019-01-23T10:57:42.680Z,97.80
2019-01-23T10:58:42.675Z,106.30
2019-01-23T10:59:42.658Z,95.80
2019-01-23T11:00:42.669Z,105.10
2019-01-23T11:01:42.634Z,97.00
2019-01-23T11:02:42.631Z,99.80
2019-01-23T11:03:42.648Z,93.00
2019-01-23T11:04:42.639Z,91.10
2019-01-23T11:05:42.589Z,89.60
2019-01-23T11:06:42.579Z,93.60
2019-01-23T11:07:42.571Z,104.20
2019-01-23T11:08:42.564Z,94.20
2019-01-23T11:09:42.562Z,95.10
2019-01-23T11:10:42.547Z,98.30
2019-01-23T11:11:42.526Z,82.20
2019-01-23T11:12:42.515Z,92.70
2019-01-23T11:13:42.511Z,96.10
2019-01-23T11:14:42.526Z,84.90
2019-01-23T11:15:42.485Z,92.20
2019-01-23T11:16:42.472Z,92.60
2019-01-23T11:17:42.463Z,84.80
2019-01-23T11:18:42.453Z,96.00
2019-01-23T11:19:42.453Z,81.00
2019-01-23T11:20:42.428Z,95.70
2019-01-23T11:21:42.419Z,90.00
2019-01-23T11:22:42.407Z,94.20
2019-01-23T11:23:42.403Z,94.20
2019-01-23T11:24:42.421Z,91.50
2019-01-23T11:25:42.379Z,99.10
2019-01-23T11:26:42.366Z,86.40
2019-01-23T11:27:42.360Z,88.90
2019-01-23T11:28:42.346Z,91.10
2019-01-23T11:29:42.347Z,82.70
2019-01-23T11:30:42.328Z,86.30
2019-01-23T11:31:42.311Z,89.40
2019-01-23T11:32:42.302Z,100.90
2019-01-23T11:33:42.290Z,96.40
2019-01-23T11:34:42.295Z,87.70
2019-01-23T11:35:42.271Z,92.10
2019-01-23T11:36:42.259Z,97.90
2019-01-23T11:37:42.249Z,88.20
2019-01-23T11:38:42.238Z,94.10
2019-01-23T11:39:42.237Z,93.70
2019-01-23T11:40:42.215Z,96.00
2019-01-23T11:41:42.207Z,97.50
2019-01-23T11:42:42.198Z,94.50
2019-01-23T11:43:42.187Z,90.20
2019-01-23T11:44:42.184Z,92.40
2019-01-23T11:45:42.164Z,98.10
2019-01-23T11:46:42.153Z,102.40
2019-01-23T11:47:42.142Z,84.20
2019-01-23T11:48:42.142Z,90.20
2019-01-23T11:49:42.131Z,96.10
2019-01-23T11:50:42.114Z,102.50
2019-01-23T11:51:42.099Z,100.90
2019-01-23T11:52:42.091Z,86.20
2019-01-23T11:53:42.085Z,81.10
2019-01-23T11:54:42.085Z,98.40
2019-01-23T11:55:42.055Z,88.20
2019-01-23T11:56:42.046Z,85.20
2019-01-23T11:57:42.036Z,99.30
2019-01-23T11:58:42.023Z,92.80
2019-01-23T11:59:42.024Z,96.20
2019-01-23T12:00:42.006Z,94.10
2019-01-23T12:01:41.993Z,95.20
2019-01-23T12:02:41.984Z,90.00
2019-01-23T12:03:41.973Z,81.30
2019-01-23T12:04:41.976Z,94.40
2019-01-23T12:05:41.955Z,90.00
2019-01-23T12:06:41.943Z,89.90
2019-01-23T12:07:41.931Z,85.90
2019-01-23T12:08:41.920Z,93.20
2019-01-23T12:09:41.922Z,87.70
2019-01-23T12:10:41.902Z,85.20
2019-01-23T12:11:41.902Z,89.30
2019-01-23T12:12:41.878Z,79.80
2019-01-23T12:13:41.867Z,91.50
2019-01-23T12:14:41.872Z,81.70
2019-01-23T12:15:41.847Z,86.70
2019-01-23T12:16:41.838Z,80.40
2019-01-23T12:17:41.832Z,91.00
2019-01-23T12:18:41.814Z,79.30
2019-01-23T12:19:41.816Z,79.60
2019-01-23T12:20:41.796Z,81.20
2019-01-23T12:21:41.787Z,80.20
2019-01-23T12:22:41.779Z,95.70
2019-01-23T12:23:41.762Z,82.60
2019-01-23T12:24:42.057Z,84.80
2019-01-23T12:25:41.741Z,78.70
2019-01-23T12:26:41.741Z,84.90
2019-01-23T12:27:41.723Z,86.60
2019-01-23T12:28:41.720Z,82.10
2019-01-23T12:29:41.699Z,84.50
2019-01-23T12:30:41.743Z,82.70
2019-01-23T12:31:41.680Z,78.40
2019-01-23T12:32:41.669Z,79.10
2019-01-23T12:33:41.659Z,88.90
2019-01-23T12:34:41.650Z,85.50
2019-01-23T12:35:41.657Z,87.90
2019-01-23T12:36:41.625Z,88.40
2019-01-23T12:37:41.616Z,76.10
2019-01-23T12:38:41.606Z,83.70
2019-01-23T12:39:41.595Z,85.20
2019-01-23T12:40:41.602Z,85.70
2019-01-23T12:41:41.574Z,81.80
2019-01-23T12:42:41.565Z,78.50
2019-01-23T12:43:41.554Z,81.00
2019-01-23T12:44:41.547Z,82.00
2019-01-23T12:45:41.544Z,92.50
2019-01-23T12:46:41.534Z,79.30
2019-01-23T12:47:41.513Z,81.10
2019-01-23T12:48:41.501Z,78.10
2019-01-23T12:49:41.492Z,86.30
2019-01-23T12:50:41.495Z,73.10
2019-01-23T12:51:41.475Z,77.90